sensor_id;sensor_type;location;lat;lon;timestamp;temperature;humidity
25302;DHT22;13243;50.888;4.724;2024-03-02T00:04:50;7.30;99.90
25302;DHT22;13243;50.888;4.724;2024-03-02T00:09:53;7.30;99.90
25302;DHT22;13243;50.888;4.724;2024-03-02T00:14:56;7.30;99.90
25302;DHT22;13243;50.888;4.724;2024-03-02T00:19:58;7.30;99.90
25302;DHT22;13243;50.888;4.724;2024-03-02T00:24:59;7.30;99.90
25302;DHT22;13243;50.888;4.724;2024-03-02T00:30:05;7.20;99.90
25302;DHT22;13243;50.888;4.724;2024-03-02T00:35:07;7.20;99.90
25302;DHT22;13243;50.888;4.724;2024-03-02T00:40:10;7.20;99.90
25302;DHT22;13243;50.888;4.724;2024-03-02T00:45:15;7.20;99.90
25302;DHT22;13243;50.888;4.724;2024-03-02T00:50:17;7.00;99.90
25302;DHT22;13243;50.888;4.724;2024-03-02T00:55:30;7.20;99.90
25302;DHT22;13243;50.888;4.724;2024-03-02T01:00:32;7.20;99.90
25302;DHT22;13243;50.888;4.724;2024-03-02T01:05:34;7.10;99.90
25302;DHT22;13243;50.888;4.724;2024-03-02T01:10:37;7.20;99.90
25302;DHT22;13243;50.888;4.724;2024-03-02T01:15:39;7.20;99.90
25302;DHT22;13243;50.888;4.724;2024-03-02T01:20:41;7.10;99.90
25302;DHT22;13243;50.888;4.724;2024-03-02T01:25:43;7.10;99.90
25302;DHT22;13243;50.888;4.724;2024-03-02T01:30:45;7.20;99.90
25302;DHT22;13243;50.888;4.724;2024-03-02T01:35:47;7.20;99.90
25302;DHT22;13243;50.888;4.724;2024-03-02T01:40:49;7.10;99.90
25302;DHT22;13243;50.888;4.724;2024-03-02T01:45:51;7.10;99.90
25302;DHT22;13243;50.888;4.724;2024-03-02T01:50:53;7.00;99.90
25302;DHT22;13243;50.888;4.724;2024-03-02T01:55:56;7.10;99.90
25302;DHT22;13243;50.888;4.724;2024-03-02T02:00:57;7.10;99.90
25302;DHT22;13243;50.888;4.724;2024-03-02T02:05:59;7.00;99.90
25302;DHT22;13243;50.888;4.724;2024-03-02T02:11:02;7.10;99.90
25302;DHT22;13243;50.888;4.724;2024-03-02T02:16:07;7.10;99.90
25302;DHT22;13243;50.888;4.724;2024-03-02T02:21:09;7.00;99.90
25302;DHT22;13243;50.888;4.724;2024-03-02T02:26:11;7.00;99.90
25302;DHT22;13243;50.888;4.724;2024-03-02T02:31:14;7.10;99.90
25302;DHT22;13243;50.888;4.724;2024-03-02T02:36:15;7.10;99.90
25302;DHT22;13243;50.888;4.724;2024-03-02T02:41:18;7.10;99.90
25302;DHT22;13243;50.888;4.724;2024-03-02T02:46:20;7.00;99.90
25302;DHT22;13243;50.888;4.724;2024-03-02T02:51:21;6.90;99.90
25302;DHT22;13243;50.888;4.724;2024-03-02T02:56:23;6.80;99.90
25302;DHT22;13243;50.888;4.724;2024-03-02T03:01:25;6.80;99.90
25302;DHT22;13243;50.888;4.724;2024-03-02T03:06:27;6.80;99.90
25302;DHT22;13243;50.888;4.724;2024-03-02T03:11:29;6.70;99.90
25302;DHT22;13243;50.888;4.724;2024-03-02T03:16:31;6.70;99.90
25302;DHT22;13243;50.888;4.724;2024-03-02T03:21:33;6.60;99.90
25302;DHT22;13243;50.888;4.724;2024-03-02T03:26:38;6.60;99.90
25302;DHT22;13243;50.888;4.724;2024-03-02T03:31:40;6.50;99.90
25302;DHT22;13243;50.888;4.724;2024-03-02T03:36:42;6.50;99.90
25302;DHT22;13243;50.888;4.724;2024-03-02T03:41:44;6.40;99.90
25302;DHT22;13243;50.888;4.724;2024-03-02T03:46:46;6.50;99.90
25302;DHT22;13243;50.888;4.724;2024-03-02T03:51:48;6.40;99.90
25302;DHT22;13243;50.888;4.724;2024-03-02T03:56:51;6.40;99.90
25302;DHT22;13243;50.888;4.724;2024-03-02T04:01:53;6.30;99.90
25302;DHT22;13243;50.888;4.724;2024-03-02T04:06:55;6.30;99.90
25302;DHT22;13243;50.888;4.724;2024-03-02T04:11:57;6.40;99.90
25302;DHT22;13243;50.888;4.724;2024-03-02T04:16:58;6.30;99.90
25302;DHT22;13243;50.888;4.724;2024-03-02T04:22:00;6.30;99.90
25302;DHT22;13243;50.888;4.724;2024-03-02T04:27:15;6.30;99.90
25302;DHT22;13243;50.888;4.724;2024-03-02T04:32:17;6.20;99.90
25302;DHT22;13243;50.888;4.724;2024-03-02T04:37:21;6.20;99.90
25302;DHT22;13243;50.888;4.724;2024-03-02T04:42:23;6.20;99.90
25302;DHT22;13243;50.888;4.724;2024-03-02T04:47:26;6.10;99.90
25302;DHT22;13243;50.888;4.724;2024-03-02T04:52:28;6.10;99.90
25302;DHT22;13243;50.888;4.724;2024-03-02T04:57:30;6.00;99.90
25302;DHT22;13243;50.888;4.724;2024-03-02T05:02:32;5.90;99.90
25302;DHT22;13243;50.888;4.724;2024-03-02T05:07:34;6.00;99.90
25302;DHT22;13243;50.888;4.724;2024-03-02T05:12:36;6.00;99.90
25302;DHT22;13243;50.888;4.724;2024-03-02T05:17:46;6.00;99.90
25302;DHT22;13243;50.888;4.724;2024-03-02T05:22:48;6.00;99.90
25302;DHT22;13243;50.888;4.724;2024-03-02T05:27:51;6.00;99.90
25302;DHT22;13243;50.888;4.724;2024-03-02T05:32:53;6.00;99.90
25302;DHT22;13243;50.888;4.724;2024-03-02T05:37:55;6.00;99.90
25302;DHT22;13243;50.888;4.724;2024-03-02T05:42:57;5.90;99.90
25302;DHT22;13243;50.888;4.724;2024-03-02T05:47:59;6.00;99.90
25302;DHT22;13243;50.888;4.724;2024-03-02T05:53:01;5.90;99.90
25302;DHT22;13243;50.888;4.724;2024-03-02T05:58:03;6.00;99.90
25302;DHT22;13243;50.888;4.724;2024-03-02T06:03:08;5.90;99.90
25302;DHT22;13243;50.888;4.724;2024-03-02T06:08:11;5.90;99.90
25302;DHT22;13243;50.888;4.724;2024-03-02T06:13:12;5.90;99.90
25302;DHT22;13243;50.888;4.724;2024-03-02T06:18:14;5.90;99.90
25302;DHT22;13243;50.888;4.724;2024-03-02T06:23:16;5.90;99.90
25302;DHT22;13243;50.888;4.724;2024-03-02T06:28:18;5.90;99.90
25302;DHT22;13243;50.888;4.724;2024-03-02T06:33:20;5.90;99.90
25302;DHT22;13243;50.888;4.724;2024-03-02T06:38:22;5.90;99.90
25302;DHT22;13243;50.888;4.724;2024-03-02T06:43:24;6.00;99.90
25302;DHT22;13243;50.888;4.724;2024-03-02T06:48:25;5.90;99.90
25302;DHT22;13243;50.888;4.724;2024-03-02T06:53:27;6.00;99.90
25302;DHT22;13243;50.888;4.724;2024-03-02T06:58:30;6.00;99.90
25302;DHT22;13243;50.888;4.724;2024-03-02T07:03:31;6.00;99.90
25302;DHT22;13243;50.888;4.724;2024-03-02T07:08:34;6.10;99.90
25302;DHT22;13243;50.888;4.724;2024-03-02T07:13:37;6.00;99.90
25302;DHT22;13243;50.888;4.724;2024-03-02T07:18:38;6.00;99.90
25302;DHT22;13243;50.888;4.724;2024-03-02T07:23:43;6.10;99.90
25302;DHT22;13243;50.888;4.724;2024-03-02T07:28:48;6.10;99.90
25302;DHT22;13243;50.888;4.724;2024-03-02T07:33:50;6.20;99.90
25302;DHT22;13243;50.888;4.724;2024-03-02T07:38:53;6.20;99.90
25302;DHT22;13243;50.888;4.724;2024-03-02T07:43:56;6.30;99.90
25302;DHT22;13243;50.888;4.724;2024-03-02T07:48:58;6.40;99.90
25302;DHT22;13243;50.888;4.724;2024-03-02T07:54:00;6.80;99.90
25302;DHT22;13243;50.888;4.724;2024-03-02T07:59:03;6.50;99.90
25302;DHT22;13243;50.888;4.724;2024-03-02T08:04:05;6.60;99.90
25302;DHT22;13243;50.888;4.724;2024-03-02T08:09:07;6.70;99.90
25302;DHT22;13243;50.888;4.724;2024-03-02T08:14:11;6.90;99.90
25302;DHT22;13243;50.888;4.724;2024-03-02T08:19:13;7.10;99.90
25302;DHT22;13243;50.888;4.724;2024-03-02T08:24:15;7.20;99.90
25302;DHT22;13243;50.888;4.724;2024-03-02T08:29:18;7.40;99.90
25302;DHT22;13243;50.888;4.724;2024-03-02T08:34:20;7.60;99.90
25302;DHT22;13243;50.888;4.724;2024-03-02T08:39:22;7.80;99.90
25302;DHT22;13243;50.888;4.724;2024-03-02T08:44:24;7.90;99.90
25302;DHT22;13243;50.888;4.724;2024-03-02T08:49:26;8.10;99.90
25302;DHT22;13243;50.888;4.724;2024-03-02T08:54:28;8.30;99.90
25302;DHT22;13243;50.888;4.724;2024-03-02T08:59:30;8.40;99.90
25302;DHT22;13243;50.888;4.724;2024-03-02T09:04:33;8.60;99.90
25302;DHT22;13243;50.888;4.724;2024-03-02T09:09:36;8.80;99.90
25302;DHT22;13243;50.888;4.724;2024-03-02T09:14:40;9.00;99.90
25302;DHT22;13243;50.888;4.724;2024-03-02T09:19:42;9.10;99.90
25302;DHT22;13243;50.888;4.724;2024-03-02T09:24:44;9.10;99.90
25302;DHT22;13243;50.888;4.724;2024-03-02T09:29:46;9.30;99.90
25302;DHT22;13243;50.888;4.724;2024-03-02T09:34:48;9.40;99.90
25302;DHT22;13243;50.888;4.724;2024-03-02T09:39:50;9.40;99.90
25302;DHT22;13243;50.888;4.724;2024-03-02T09:44:53;9.10;99.90
25302;DHT22;13243;50.888;4.724;2024-03-02T09:49:56;9.20;99.90
25302;DHT22;13243;50.888;4.724;2024-03-02T09:54:58;9.50;99.90
25302;DHT22;13243;50.888;4.724;2024-03-02T10:00:00;9.80;99.90
25302;DHT22;13243;50.888;4.724;2024-03-02T10:05:02;9.70;99.90
25302;DHT22;13243;50.888;4.724;2024-03-02T10:10:15;10.00;99.90
25302;DHT22;13243;50.888;4.724;2024-03-02T10:15:24;10.00;99.90
25302;DHT22;13243;50.888;4.724;2024-03-02T10:20:27;10.30;99.90
25302;DHT22;13243;50.888;4.724;2024-03-02T10:25:32;10.40;99.90
25302;DHT22;13243;50.888;4.724;2024-03-02T10:30:37;10.60;99.90
25302;DHT22;13243;50.888;4.724;2024-03-02T10:35:39;10.60;99.90
25302;DHT22;13243;50.888;4.724;2024-03-02T10:40:47;10.60;99.90
25302;DHT22;13243;50.888;4.724;2024-03-02T10:45:49;10.80;99.90
25302;DHT22;13243;50.888;4.724;2024-03-02T10:50:52;10.90;99.90
25302;DHT22;13243;50.888;4.724;2024-03-02T10:55:57;11.20;99.90
25302;DHT22;13243;50.888;4.724;2024-03-02T11:01:07;11.20;99.90
25302;DHT22;13243;50.888;4.724;2024-03-02T11:06:12;11.20;99.90
25302;DHT22;13243;50.888;4.724;2024-03-02T11:11:17;11.30;99.90
25302;DHT22;13243;50.888;4.724;2024-03-02T11:16:34;11.20;99.90
25302;DHT22;13243;50.888;4.724;2024-03-02T11:21:40;11.20;99.90
25302;DHT22;13243;50.888;4.724;2024-03-02T11:26:42;11.60;99.90
25302;DHT22;13243;50.888;4.724;2024-03-02T11:32:00;12.00;99.90
25302;DHT22;13243;50.888;4.724;2024-03-02T11:37:03;12.60;99.90
25302;DHT22;13243;50.888;4.724;2024-03-02T11:42:06;12.30;99.90
25302;DHT22;13243;50.888;4.724;2024-03-02T11:47:12;12.40;99.90
25302;DHT22;13243;50.888;4.724;2024-03-02T11:52:16;12.60;99.90
25302;DHT22;13243;50.888;4.724;2024-03-02T11:57:22;12.60;99.90
25302;DHT22;13243;50.888;4.724;2024-03-02T12:02:24;12.70;99.90
25302;DHT22;13243;50.888;4.724;2024-03-02T12:07:26;12.60;99.90
25302;DHT22;13243;50.888;4.724;2024-03-02T12:12:28;12.90;99.90
25302;DHT22;13243;50.888;4.724;2024-03-02T12:17:30;13.30;99.90
25302;DHT22;13243;50.888;4.724;2024-03-02T12:22:32;12.80;99.90
25302;DHT22;13243;50.888;4.724;2024-03-02T12:27:34;12.90;99.90
25302;DHT22;13243;50.888;4.724;2024-03-02T12:32:37;12.50;99.90
25302;DHT22;13243;50.888;4.724;2024-03-02T12:37:45;12.60;99.90
25302;DHT22;13243;50.888;4.724;2024-03-02T12:42:47;12.80;99.90
25302;DHT22;13243;50.888;4.724;2024-03-02T12:47:50;12.90;99.90
25302;DHT22;13243;50.888;4.724;2024-03-02T12:52:54;12.70;99.90
25302;DHT22;13243;50.888;4.724;2024-03-02T12:57:56;12.60;99.90
25302;DHT22;13243;50.888;4.724;2024-03-02T13:03:01;12.40;99.90
25302;DHT22;13243;50.888;4.724;2024-03-02T13:08:06;12.40;99.90
25302;DHT22;13243;50.888;4.724;2024-03-02T13:13:08;12.60;99.90
25302;DHT22;13243;50.888;4.724;2024-03-02T13:18:11;13.00;99.90
25302;DHT22;13243;50.888;4.724;2024-03-02T13:23:13;13.90;99.90
25302;DHT22;13243;50.888;4.724;2024-03-02T13:28:15;13.90;99.90
25302;DHT22;13243;50.888;4.724;2024-03-02T13:33:17;13.70;99.90
25302;DHT22;13243;50.888;4.724;2024-03-02T13:38:24;13.60;99.90
25302;DHT22;13243;50.888;4.724;2024-03-02T13:43:26;14.00;99.90
25302;DHT22;13243;50.888;4.724;2024-03-02T13:48:28;13.70;99.90
25302;DHT22;13243;50.888;4.724;2024-03-02T13:53:30;13.70;99.90
25302;DHT22;13243;50.888;4.724;2024-03-02T13:58:34;14.00;99.90
25302;DHT22;13243;50.888;4.724;2024-03-02T14:03:36;14.30;99.90
25302;DHT22;13243;50.888;4.724;2024-03-02T14:08:38;13.70;99.90
25302;DHT22;13243;50.888;4.724;2024-03-02T14:13:39;13.30;99.90
25302;DHT22;13243;50.888;4.724;2024-03-02T14:18:41;13.10;99.90
25302;DHT22;13243;50.888;4.724;2024-03-02T14:23:43;13.10;99.90
25302;DHT22;13243;50.888;4.724;2024-03-02T14:28:45;13.00;99.90
25302;DHT22;13243;50.888;4.724;2024-03-02T14:33:53;13.10;99.90
25302;DHT22;13243;50.888;4.724;2024-03-02T14:38:56;13.00;99.90
25302;DHT22;13243;50.888;4.724;2024-03-02T14:43:59;12.80;99.90
25302;DHT22;13243;50.888;4.724;2024-03-02T14:49:01;12.80;99.90
25302;DHT22;13243;50.888;4.724;2024-03-02T14:54:03;12.80;99.90
25302;DHT22;13243;50.888;4.724;2024-03-02T14:59:05;12.80;99.90
25302;DHT22;13243;50.888;4.724;2024-03-02T15:04:08;12.80;99.90
25302;DHT22;13243;50.888;4.724;2024-03-02T15:09:10;12.70;99.90
25302;DHT22;13243;50.888;4.724;2024-03-02T15:14:13;12.70;99.90
25302;DHT22;13243;50.888;4.724;2024-03-02T15:19:15;12.70;99.90
25302;DHT22;13243;50.888;4.724;2024-03-02T15:24:18;12.60;99.90
25302;DHT22;13243;50.888;4.724;2024-03-02T15:29:20;12.60;99.90
25302;DHT22;13243;50.888;4.724;2024-03-02T15:34:24;12.50;99.90
25302;DHT22;13243;50.888;4.724;2024-03-02T15:39:26;12.50;99.90
25302;DHT22;13243;50.888;4.724;2024-03-02T15:44:28;12.50;99.90
25302;DHT22;13243;50.888;4.724;2024-03-02T15:49:30;12.50;99.90
25302;DHT22;13243;50.888;4.724;2024-03-02T15:54:33;12.50;99.90
25302;DHT22;13243;50.888;4.724;2024-03-02T15:59:35;12.50;99.90
25302;DHT22;13243;50.888;4.724;2024-03-02T16:04:37;12.40;99.90
25302;DHT22;13243;50.888;4.724;2024-03-02T16:09:39;12.40;99.90
25302;DHT22;13243;50.888;4.724;2024-03-02T16:14:41;12.30;99.90
25302;DHT22;13243;50.888;4.724;2024-03-02T16:19:43;12.20;99.90
25302;DHT22;13243;50.888;4.724;2024-03-02T16:24:45;12.10;99.90
25302;DHT22;13243;50.888;4.724;2024-03-02T16:29:47;12.10;99.90
25302;DHT22;13243;50.888;4.724;2024-03-02T16:34:49;12.10;99.90
25302;DHT22;13243;50.888;4.724;2024-03-02T16:39:52;12.00;99.90
25302;DHT22;13243;50.888;4.724;2024-03-02T16:44:54;12.00;99.90
25302;DHT22;13243;50.888;4.724;2024-03-02T16:49:58;12.00;99.90
25302;DHT22;13243;50.888;4.724;2024-03-02T16:55:01;11.90;99.90
25302;DHT22;13243;50.888;4.724;2024-03-02T17:00:06;11.90;99.90
25302;DHT22;13243;50.888;4.724;2024-03-02T17:05:09;11.80;99.90
25302;DHT22;13243;50.888;4.724;2024-03-02T17:10:11;11.80;99.90
25302;DHT22;13243;50.888;4.724;2024-03-02T17:15:13;11.80;99.90
25302;DHT22;13243;50.888;4.724;2024-03-02T17:20:15;11.80;99.90
25302;DHT22;13243;50.888;4.724;2024-03-02T17:25:17;11.80;99.90
25302;DHT22;13243;50.888;4.724;2024-03-02T17:30:19;11.70;99.90
25302;DHT22;13243;50.888;4.724;2024-03-02T17:35:22;11.60;99.90
25302;DHT22;13243;50.888;4.724;2024-03-02T17:40:24;11.60;99.90
25302;DHT22;13243;50.888;4.724;2024-03-02T17:45:29;11.50;99.90
25302;DHT22;13243;50.888;4.724;2024-03-02T17:50:31;11.40;99.90
25302;DHT22;13243;50.888;4.724;2024-03-02T17:55:33;11.30;99.90
25302;DHT22;13243;50.888;4.724;2024-03-02T18:00:35;11.20;99.90
25302;DHT22;13243;50.888;4.724;2024-03-02T18:05:37;11.20;99.90
25302;DHT22;13243;50.888;4.724;2024-03-02T18:10:39;11.20;99.90
25302;DHT22;13243;50.888;4.724;2024-03-02T18:15:41;11.10;99.90
25302;DHT22;13243;50.888;4.724;2024-03-02T18:20:43;11.10;99.90
25302;DHT22;13243;50.888;4.724;2024-03-02T18:25:46;11.00;99.90
25302;DHT22;13243;50.888;4.724;2024-03-02T18:30:49;11.00;99.90
25302;DHT22;13243;50.888;4.724;2024-03-02T18:35:51;10.90;99.90
25302;DHT22;13243;50.888;4.724;2024-03-02T18:40:53;10.90;99.90
25302;DHT22;13243;50.888;4.724;2024-03-02T18:45:55;10.80;99.90
25302;DHT22;13243;50.888;4.724;2024-03-02T18:50:57;10.80;99.90
25302;DHT22;13243;50.888;4.724;2024-03-02T18:55:59;10.70;99.90
25302;DHT22;13243;50.888;4.724;2024-03-02T19:01:01;10.90;99.90
25302;DHT22;13243;50.888;4.724;2024-03-02T19:06:03;11.00;99.90
25302;DHT22;13243;50.888;4.724;2024-03-02T19:11:11;10.90;99.90
25302;DHT22;13243;50.888;4.724;2024-03-02T19:16:14;11.00;99.90
25302;DHT22;13243;50.888;4.724;2024-03-02T19:21:16;10.90;99.90
25302;DHT22;13243;50.888;4.724;2024-03-02T19:26:18;10.90;99.90
25302;DHT22;13243;50.888;4.724;2024-03-02T19:31:21;10.80;99.90
25302;DHT22;13243;50.888;4.724;2024-03-02T19:36:22;10.80;99.90
25302;DHT22;13243;50.888;4.724;2024-03-02T19:41:25;10.70;99.90
25302;DHT22;13243;50.888;4.724;2024-03-02T19:46:26;10.80;99.90
25302;DHT22;13243;50.888;4.724;2024-03-02T19:51:28;10.80;99.90
25302;DHT22;13243;50.888;4.724;2024-03-02T19:56:30;10.70;99.90
25302;DHT22;13243;50.888;4.724;2024-03-02T20:01:32;10.80;99.90
25302;DHT22;13243;50.888;4.724;2024-03-02T20:06:34;10.80;99.90
25302;DHT22;13243;50.888;4.724;2024-03-02T20:11:36;10.80;99.90
25302;DHT22;13243;50.888;4.724;2024-03-02T20:16:45;10.70;99.90
25302;DHT22;13243;50.888;4.724;2024-03-02T20:21:46;10.60;99.90
25302;DHT22;13243;50.888;4.724;2024-03-02T20:26:48;10.60;99.90
25302;DHT22;13243;50.888;4.724;2024-03-02T20:31:50;10.50;99.90
25302;DHT22;13243;50.888;4.724;2024-03-02T20:36:52;10.50;99.90
25302;DHT22;13243;50.888;4.724;2024-03-02T20:41:54;10.50;99.90
25302;DHT22;13243;50.888;4.724;2024-03-02T20:46:56;10.50;99.90
25302;DHT22;13243;50.888;4.724;2024-03-02T20:51:58;10.60;99.90
25302;DHT22;13243;50.888;4.724;2024-03-02T20:57:01;10.60;99.90
25302;DHT22;13243;50.888;4.724;2024-03-02T21:02:07;10.60;99.90
25302;DHT22;13243;50.888;4.724;2024-03-02T21:07:09;10.50;99.90
25302;DHT22;13243;50.888;4.724;2024-03-02T21:12:11;10.60;99.90
25302;DHT22;13243;50.888;4.724;2024-03-02T21:17:13;10.60;99.90
25302;DHT22;13243;50.888;4.724;2024-03-02T21:22:15;10.50;99.90
25302;DHT22;13243;50.888;4.724;2024-03-02T21:27:17;10.60;99.90
25302;DHT22;13243;50.888;4.724;2024-03-02T21:32:21;10.50;99.90
25302;DHT22;13243;50.888;4.724;2024-03-02T21:37:23;10.60;99.90
25302;DHT22;13243;50.888;4.724;2024-03-02T21:42:26;10.70;99.90
25302;DHT22;13243;50.888;4.724;2024-03-02T21:47:27;10.70;99.90
25302;DHT22;13243;50.888;4.724;2024-03-02T21:52:29;10.70;99.90
25302;DHT22;13243;50.888;4.724;2024-03-02T21:57:31;10.70;99.90
25302;DHT22;13243;50.888;4.724;2024-03-02T22:02:33;10.70;99.90
25302;DHT22;13243;50.888;4.724;2024-03-02T22:07:35;10.70;99.90
25302;DHT22;13243;50.888;4.724;2024-03-02T22:12:37;10.70;99.90
25302;DHT22;13243;50.888;4.724;2024-03-02T22:17:39;10.80;99.90
25302;DHT22;13243;50.888;4.724;2024-03-02T22:22:41;10.80;99.90
25302;DHT22;13243;50.888;4.724;2024-03-02T22:27:42;10.80;99.90
25302;DHT22;13243;50.888;4.724;2024-03-02T22:32:44;10.80;99.90
25302;DHT22;13243;50.888;4.724;2024-03-02T22:37:46;10.90;99.90
25302;DHT22;13243;50.888;4.724;2024-03-02T22:42:48;10.90;99.90
25302;DHT22;13243;50.888;4.724;2024-03-02T22:47:50;10.80;99.90
25302;DHT22;13243;50.888;4.724;2024-03-02T22:52:52;10.70;99.90
25302;DHT22;13243;50.888;4.724;2024-03-02T22:57:54;10.70;99.90
25302;DHT22;13243;50.888;4.724;2024-03-02T23:02:58;10.70;99.90
25302;DHT22;13243;50.888;4.724;2024-03-02T23:08:00;10.60;99.90
25302;DHT22;13243;50.888;4.724;2024-03-02T23:13:02;10.60;99.90
25302;DHT22;13243;50.888;4.724;2024-03-02T23:18:04;10.60;99.90
25302;DHT22;13243;50.888;4.724;2024-03-02T23:23:07;10.60;99.90
25302;DHT22;13243;50.888;4.724;2024-03-02T23:28:09;10.60;99.90
25302;DHT22;13243;50.888;4.724;2024-03-02T23:33:10;10.70;99.90
25302;DHT22;13243;50.888;4.724;2024-03-02T23:38:14;10.70;99.90
25302;DHT22;13243;50.888;4.724;2024-03-02T23:43:15;10.80;99.90
25302;DHT22;13243;50.888;4.724;2024-03-02T23:48:17;10.80;99.90
25302;DHT22;13243;50.888;4.724;2024-03-02T23:53:19;10.80;99.90
25302;DHT22;13243;50.888;4.724;2024-03-02T23:58:21;10.60;99.90
